createdAt,value
2023-05-24T00:00:53.127Z,82.88
2023-05-24T00:01:44.781Z,82.64
2023-05-24T00:02:37.823Z,82.75
2023-05-24T00:03:34.961Z,82.71
2023-05-24T00:04:30.125Z,82.54
2023-05-24T00:05:21.847Z,82.45
2023-05-24T00:06:13.325Z,82.40
2023-05-24T00:07:04.936Z,83.50
2023-05-24T00:07:59.782Z,83.30
2023-05-24T00:09:02.094Z,83.60
2023-05-24T00:09:53.618Z,83.47
2023-05-24T00:10:48.408Z,83.14
2023-05-24T00:11:42.770Z,83.33
2023-05-24T00:12:36.434Z,83.07
2023-05-24T00:13:28.984Z,83.13
2023-05-24T00:14:20.761Z,83.56
2023-05-24T00:15:14.286Z,83.54
2023-05-24T00:16:08.884Z,83.75
2023-05-24T00:17:00.411Z,83.90
2023-05-24T00:17:52.114Z,83.65
2023-05-24T00:18:47.172Z,83.85
2023-05-24T00:19:40.722Z,83.75
2023-05-24T00:20:32.245Z,83.54
2023-05-24T00:21:23.798Z,83.91
2023-05-24T00:22:15.273Z,84.23
2023-05-24T00:23:06.900Z,84.32
2023-05-24T00:23:58.550Z,84.44
2023-05-24T00:24:50.220Z,84.42
2023-05-24T00:25:41.827Z,84.28
2023-05-24T00:26:33.512Z,84.57
2023-05-24T00:27:25.676Z,85.00
2023-05-24T00:28:18.195Z,84.83
2023-05-24T00:29:10.904Z,84.83
2023-05-24T00:30:05.380Z,84.80
2023-05-24T00:30:58.028Z,84.96
2023-05-24T00:31:50.716Z,85.13
2023-05-24T00:32:42.422Z,85.02
2023-05-24T00:33:41.579Z,84.92
2023-05-24T00:34:33.096Z,85.07
2023-05-24T00:35:24.839Z,84.85
2023-05-24T00:36:18.336Z,85.25
2023-05-24T00:37:12.929Z,84.92
2023-05-24T00:38:04.525Z,84.84
2023-05-24T00:38:56.243Z,85.20
2023-05-24T00:39:47.735Z,85.15
2023-05-24T00:40:39.464Z,85.61
2023-05-24T00:41:31.030Z,85.44
2023-05-24T00:42:23.816Z,85.64
2023-05-24T00:43:15.558Z,85.92
2023-05-24T00:44:07.299Z,85.89
2023-05-24T00:44:58.968Z,85.69
2023-05-24T00:46:13.466Z,85.81
2023-05-24T00:47:05.435Z,85.74
2023-05-24T00:47:59.758Z,85.49
2023-05-24T00:48:51.870Z,85.96
2023-05-24T00:49:43.546Z,85.99
2023-05-24T00:50:36.850Z,86.24
2023-05-24T00:51:28.920Z,86.22
2023-05-24T00:52:21.606Z,86.43
2023-05-24T00:53:14.125Z,86.03
2023-05-24T00:54:06.977Z,86.45
2023-05-24T00:54:58.848Z,86.14
2023-05-24T00:55:50.448Z,85.82
2023-05-24T00:56:45.065Z,86.30
2023-05-24T00:57:39.481Z,86.35
2023-05-24T00:58:32.827Z,85.99
2023-05-24T00:59:26.863Z,86.50
2023-05-24T01:00:18.650Z,86.33
2023-05-24T01:01:10.540Z,85.81
2023-05-24T01:02:02.317Z,86.19
2023-05-24T01:02:55.086Z,86.50
2023-05-24T01:03:46.930Z,86.75
2023-05-24T01:04:41.285Z,86.91
2023-05-24T01:05:33.254Z,86.60
2023-05-24T01:06:27.289Z,86.99
2023-05-24T01:07:27.776Z,86.90
2023-05-24T01:08:42.697Z,87.15
2023-05-24T01:10:05.218Z,87.73
2023-05-24T01:11:14.568Z,87.90
2023-05-24T01:12:25.873Z,87.80
2023-05-24T01:13:39.249Z,88.09
2023-05-24T01:14:49.390Z,88.43
2023-05-24T01:16:05.320Z,88.39
2023-05-24T01:17:13.325Z,88.73
2023-05-24T01:18:33.084Z,88.42
2023-05-24T01:19:43.387Z,88.32
2023-05-24T01:20:40.148Z,88.19
2023-05-24T01:22:01.757Z,88.65
2023-05-24T01:23:13.901Z,88.83
2023-05-24T01:24:30.589Z,89.22
2023-05-24T01:25:42.664Z,89.48
2023-05-24T01:26:47.059Z,89.40
2023-05-24T01:27:39.047Z,89.44
2023-05-24T01:28:34.530Z,89.69
2023-05-24T01:29:28.818Z,90.00
2023-05-24T01:30:23.554Z,89.91
2023-05-24T01:31:17.740Z,89.90
2023-05-24T01:32:10.010Z,89.31
2023-05-24T01:33:01.741Z,89.38
2023-05-24T01:33:55.751Z,89.47
2023-05-24T01:34:50.357Z,89.75
2023-05-24T01:35:42.628Z,89.69
2023-05-24T01:36:36.556Z,89.51
2023-05-24T01:37:28.028Z,89.30
2023-05-24T01:38:19.515Z,88.98
2023-05-24T01:39:12.538Z,89.32
2023-05-24T01:40:06.501Z,89.29
2023-05-24T01:41:05.841Z,89.49
2023-05-24T01:42:07.459Z,89.27
2023-05-24T01:43:42.312Z,88.95
2023-05-24T01:44:57.865Z,88.07
2023-05-24T01:46:20.793Z,87.95
2023-05-24T01:47:35.619Z,88.41
2023-05-24T01:49:00.128Z,88.48
2023-05-24T01:50:01.762Z,88.39
2023-05-24T01:51:00.596Z,88.23
2023-05-24T01:52:19.836Z,89.13
2023-05-24T01:53:17.816Z,89.06
2023-05-24T01:54:13.544Z,89.23
2023-05-24T01:55:09.392Z,89.64
2023-05-24T01:56:06.053Z,89.76
2023-05-24T01:57:00.658Z,90.08
2023-05-24T01:57:59.039Z,90.40
2023-05-24T01:58:53.223Z,90.67
2023-05-24T01:59:46.155Z,90.35
2023-05-24T02:00:40.770Z,90.33
2023-05-24T02:01:35.836Z,90.63
2023-05-24T02:02:28.266Z,90.72
2023-05-24T02:03:20.488Z,90.39
2023-05-24T02:04:13.321Z,90.47
2023-05-24T02:05:05.727Z,90.42
2023-05-24T02:05:59.404Z,90.01
2023-05-24T02:06:51.137Z,89.85
2023-05-24T02:07:42.864Z,89.94
2023-05-24T02:08:34.413Z,89.99
2023-05-24T02:09:26.010Z,90.22
2023-05-24T02:10:17.656Z,90.02
2023-05-24T02:11:09.816Z,90.46
2023-05-24T02:12:02.400Z,90.84
2023-05-24T02:12:56.286Z,90.88
2023-05-24T02:13:49.914Z,91.12
2023-05-24T02:14:42.965Z,91.09
2023-05-24T02:15:36.760Z,91.22
2023-05-24T02:16:30.815Z,91.44
2023-05-24T02:17:25.973Z,91.35
2023-05-24T02:18:18.588Z,91.01
2023-05-24T02:19:10.099Z,90.47
2023-05-24T02:20:02.148Z,90.52
2023-05-24T02:20:54.263Z,91.00
2023-05-24T02:21:47.441Z,91.00
2023-05-24T02:22:39.726Z,91.07
2023-05-24T02:23:31.597Z,90.94
2023-05-24T02:24:24.611Z,91.10
2023-05-24T02:25:17.582Z,91.43
2023-05-24T02:26:11.535Z,91.77
2023-05-24T02:27:03.844Z,91.82
2023-05-24T02:27:58.032Z,91.97
2023-05-24T02:28:49.632Z,91.78
2023-05-24T02:29:41.934Z,92.40
2023-05-24T02:30:33.511Z,92.35
2023-05-24T02:31:28.715Z,92.32
2023-05-24T02:32:20.545Z,92.39
2023-05-24T02:33:12.453Z,92.68
2023-05-24T02:34:04.996Z,92.29
2023-05-24T02:34:59.299Z,92.15
2023-05-24T02:35:51.410Z,92.35
2023-05-24T02:36:44.955Z,92.26
2023-05-24T02:37:36.661Z,92.28
2023-05-24T02:38:28.247Z,91.88
2023-05-24T02:39:20.588Z,91.99
2023-05-24T02:40:14.782Z,91.91
2023-05-24T02:41:06.223Z,92.00
2023-05-24T02:41:58.109Z,91.73
2023-05-24T02:42:49.934Z,91.87
2023-05-24T02:43:43.038Z,92.17
2023-05-24T02:44:36.501Z,92.14
2023-05-24T02:45:28.354Z,92.21
2023-05-24T02:46:19.835Z,92.29
2023-05-24T02:47:11.628Z,92.24
2023-05-24T02:48:03.772Z,92.32
2023-05-24T02:48:55.742Z,92.48
2023-05-24T02:49:47.249Z,92.68
2023-05-24T02:50:38.794Z,93.10
2023-05-24T02:51:30.443Z,92.89
2023-05-24T02:52:23.137Z,92.78
2023-05-24T02:53:14.769Z,92.91
2023-05-24T02:54:06.553Z,92.92
2023-05-24T02:54:58.106Z,93.13
2023-05-24T02:55:51.161Z,93.44
2023-05-24T02:56:42.726Z,93.44
2023-05-24T02:57:37.993Z,93.24
2023-05-24T02:58:31.791Z,92.67
2023-05-24T02:59:24.337Z,92.95
2023-05-24T03:00:16.409Z,92.69
2023-05-24T03:01:08.847Z,92.83
2023-05-24T03:02:00.547Z,92.82
2023-05-24T03:02:52.446Z,92.68
2023-05-24T03:03:44.057Z,92.67
2023-05-24T03:04:35.697Z,92.82
2023-05-24T03:05:27.823Z,92.97
2023-05-24T03:06:19.543Z,93.15
2023-05-24T03:07:11.182Z,93.05
2023-05-24T03:08:02.803Z,92.97
2023-05-24T03:08:54.404Z,92.93
2023-05-24T03:09:46.238Z,92.94
2023-05-24T03:10:37.766Z,93.66
2023-05-24T03:11:31.266Z,93.63
2023-05-24T03:12:22.710Z,93.65
2023-05-24T03:13:14.250Z,93.47
2023-05-24T03:14:10.870Z,93.46
2023-05-24T03:15:05.607Z,93.39
2023-05-24T03:15:57.420Z,93.34
2023-05-24T03:16:50.781Z,93.09
2023-05-24T03:17:44.992Z,93.01
2023-05-24T03:18:41.552Z,92.96
2023-05-24T03:19:33.085Z,93.16
2023-05-24T03:20:24.815Z,93.07
2023-05-24T03:21:20.196Z,93.18
2023-05-24T03:22:11.995Z,93.49
2023-05-24T03:23:03.458Z,93.74
2023-05-24T03:23:56.663Z,93.69
2023-05-24T03:24:48.838Z,94.14
2023-05-24T03:25:41.326Z,93.86
2023-05-24T03:26:32.876Z,93.73
2023-05-24T03:27:24.448Z,93.64
2023-05-24T03:28:15.962Z,93.59
2023-05-24T03:29:08.746Z,93.78
2023-05-24T03:30:06.699Z,93.62
2023-05-24T03:31:04.677Z,93.56
2023-05-24T03:31:56.703Z,93.75
2023-05-24T03:32:48.697Z,93.56
2023-05-24T03:33:43.170Z,93.55
2023-05-24T03:34:34.802Z,93.64
2023-05-24T03:35:28.516Z,93.42
2023-05-24T03:36:21.422Z,93.31
2023-05-24T03:37:13.343Z,93.39
2023-05-24T03:38:06.595Z,93.26
2023-05-24T03:39:00.740Z,93.32
2023-05-24T03:39:54.650Z,93.60
2023-05-24T03:41:06.386Z,93.28
2023-05-24T03:41:58.926Z,93.54
2023-05-24T03:42:52.611Z,93.23
2023-05-24T03:43:54.672Z,93.20
2023-05-24T03:44:46.982Z,93.28
2023-05-24T03:45:40.002Z,93.44
2023-05-24T03:46:31.874Z,93.49
2023-05-24T03:47:23.788Z,93.86
2023-05-24T03:48:15.530Z,93.93
2023-05-24T03:49:07.925Z,94.43
2023-05-24T03:50:01.004Z,94.36
2023-05-24T03:50:53.418Z,94.64
2023-05-24T03:51:47.067Z,94.64
2023-05-24T03:52:38.589Z,94.29
2023-05-24T03:53:32.083Z,94.09
2023-05-24T03:54:24.796Z,94.18
2023-05-24T03:55:16.262Z,94.29
2023-05-24T03:56:07.787Z,94.24
2023-05-24T03:57:04.069Z,94.29
2023-05-24T03:57:55.712Z,94.37
2023-05-24T03:58:47.460Z,94.51
2023-05-24T03:59:41.091Z,94.53
2023-05-24T04:00:32.957Z,94.66
2023-05-24T04:01:33.392Z,94.41
2023-05-24T04:02:26.909Z,94.33
2023-05-24T04:03:20.223Z,94.52
2023-05-24T04:04:12.408Z,94.37
2023-05-24T04:05:08.221Z,94.01
2023-05-24T04:06:02.720Z,94.20
2023-05-24T04:06:56.220Z,94.24
2023-05-24T04:07:49.558Z,94.36
2023-05-24T04:08:41.274Z,94.33
2023-05-24T04:09:34.119Z,94.08
2023-05-24T04:10:25.724Z,94.46
2023-05-24T04:11:17.298Z,94.06
2023-05-24T04:12:10.114Z,93.82
2023-05-24T04:13:02.109Z,93.60
2023-05-24T04:13:55.948Z,93.28
2023-05-24T04:14:47.417Z,92.90
2023-05-24T04:15:38.955Z,92.83
2023-05-24T04:16:34.467Z,92.40
2023-05-24T04:17:34.937Z,92.31
2023-05-24T04:18:26.802Z,92.15
2023-05-24T04:19:19.682Z,92.48
2023-05-24T04:20:12.683Z,92.56
2023-05-24T04:21:04.329Z,92.71
2023-05-24T04:21:55.797Z,92.74
2023-05-24T04:22:50.021Z,92.75
2023-05-24T04:23:41.603Z,92.79
2023-05-24T04:24:33.103Z,93.08
2023-05-24T04:25:27.901Z,93.22
2023-05-24T04:26:21.152Z,93.31
2023-05-24T04:27:13.286Z,93.08
2023-05-24T04:28:06.104Z,93.01
2023-05-24T04:29:00.531Z,92.95
2023-05-24T04:29:53.680Z,93.00
2023-05-24T04:30:46.312Z,92.67
2023-05-24T04:31:38.047Z,93.01
2023-05-24T04:32:30.428Z,93.25
2023-05-24T04:33:25.025Z,93.84
2023-05-24T04:34:22.101Z,93.41
2023-05-24T04:35:15.535Z,93.27
2023-05-24T04:36:08.335Z,93.26
2023-05-24T04:37:00.381Z,93.16
2023-05-24T04:37:52.562Z,93.42
2023-05-24T04:38:46.169Z,93.32
2023-05-24T04:39:37.709Z,93.31
2023-05-24T04:40:29.358Z,93.45
2023-05-24T04:41:22.383Z,93.52
2023-05-24T04:42:18.489Z,93.60
2023-05-24T04:43:10.764Z,93.48
2023-05-24T04:44:02.311Z,93.34
2023-05-24T04:44:53.886Z,93.57
2023-05-24T04:45:46.774Z,92.95
2023-05-24T04:46:38.407Z,93.05
2023-05-24T04:47:30.017Z,93.10
2023-05-24T04:48:24.203Z,93.18
2023-05-24T04:49:15.875Z,92.92
2023-05-24T04:50:08.188Z,92.96
2023-05-24T04:51:00.445Z,92.93
2023-05-24T04:51:53.435Z,92.74
2023-05-24T04:52:47.099Z,92.29
2023-05-24T04:53:38.713Z,91.43
2023-05-24T04:54:30.597Z,91.22
2023-05-24T04:55:22.153Z,91.28
2023-05-24T04:56:14.992Z,91.15
2023-05-24T04:57:06.652Z,91.04
2023-05-24T04:57:58.505Z,91.18
2023-05-24T04:58:49.929Z,91.04
2023-05-24T04:59:41.454Z,91.20
2023-05-24T05:00:33.043Z,90.89
2023-05-24T05:01:28.731Z,90.96
2023-05-24T05:02:22.878Z,90.95
2023-05-24T05:03:14.672Z,90.97
2023-05-24T05:04:07.347Z,91.13
2023-05-24T05:04:59.141Z,91.05
2023-05-24T05:05:50.657Z,91.15
2023-05-24T05:06:44.653Z,90.74
2023-05-24T05:07:36.930Z,90.59
2023-05-24T05:08:28.449Z,90.57
2023-05-24T05:09:20.177Z,90.51
2023-05-24T05:10:11.610Z,90.50
2023-05-24T05:11:05.310Z,90.53
2023-05-24T05:11:57.171Z,90.51
2023-05-24T05:12:48.833Z,90.48
2023-05-24T05:13:40.591Z,91.01
2023-05-24T05:14:32.010Z,90.67
2023-05-24T05:15:24.386Z,90.41
2023-05-24T05:16:16.131Z,90.27
2023-05-24T05:17:07.747Z,90.13
2023-05-24T05:17:59.483Z,90.23
2023-05-24T05:18:51.194Z,89.95
2023-05-24T05:19:42.735Z,89.63
2023-05-24T05:20:34.349Z,89.43
2023-05-24T05:21:26.085Z,89.28
2023-05-24T05:22:19.717Z,89.08
2023-05-24T05:23:11.421Z,88.73
2023-05-24T05:24:06.512Z,88.69
2023-05-24T05:24:57.999Z,88.09
2023-05-24T05:25:49.577Z,87.90
2023-05-24T05:26:41.769Z,87.77
2023-05-24T05:27:34.267Z,87.67
2023-05-24T05:28:27.098Z,87.37
2023-05-24T05:29:21.744Z,87.20
2023-05-24T05:30:15.500Z,87.11
2023-05-24T05:31:07.271Z,87.30
2023-05-24T05:31:59.086Z,86.90
2023-05-24T05:32:50.819Z,86.65
2023-05-24T05:33:42.455Z,86.61
2023-05-24T05:34:34.063Z,86.62
2023-05-24T05:35:25.829Z,86.43
2023-05-24T05:36:19.756Z,86.62
2023-05-24T05:37:11.631Z,86.49
2023-05-24T05:38:03.395Z,86.20
2023-05-24T05:38:57.344Z,85.71
2023-05-24T05:39:48.771Z,85.75
2023-05-24T05:40:40.709Z,85.79
2023-05-24T05:41:32.335Z,85.52
2023-05-24T05:42:23.806Z,85.79
2023-05-24T05:43:15.409Z,85.74
2023-05-24T05:44:09.012Z,85.87
2023-05-24T05:45:00.633Z,86.05
2023-05-24T05:45:57.561Z,85.87
2023-05-24T05:46:49.085Z,85.81
2023-05-24T05:47:41.118Z,85.88
2023-05-24T05:48:32.620Z,85.58
2023-05-24T05:49:24.251Z,85.68
2023-05-24T05:50:15.988Z,85.02
2023-05-24T05:51:07.571Z,84.22
2023-05-24T05:52:01.152Z,83.63
2023-05-24T05:52:56.570Z,83.70
2023-05-24T05:53:48.083Z,83.14
2023-05-24T05:54:39.644Z,83.21
2023-05-24T05:55:31.370Z,83.24
2023-05-24T05:56:22.973Z,83.05
2023-05-24T05:57:16.268Z,82.89
2023-05-24T05:58:07.937Z,83.25
2023-05-24T05:58:59.318Z,83.07
2023-05-24T05:59:51.051Z,83.41
2023-05-24T06:00:42.787Z,82.81
2023-05-24T06:01:37.083Z,83.15
2023-05-24T06:02:28.704Z,82.94
2023-05-24T06:03:22.713Z,82.57
2023-05-24T06:04:15.959Z,82.05
2023-05-24T06:05:08.058Z,82.62
2023-05-24T06:05:59.593Z,82.22
2023-05-24T06:06:52.116Z,82.14
2023-05-24T06:07:47.002Z,81.63
2023-05-24T06:08:40.709Z,80.99
2023-05-24T06:09:32.240Z,80.54
2023-05-24T06:10:23.739Z,80.19
2023-05-24T06:11:18.299Z,80.30
2023-05-24T06:12:09.981Z,80.76
2023-05-24T06:13:02.917Z,79.98
2023-05-24T06:13:54.468Z,80.15
2023-05-24T06:14:48.340Z,79.76
2023-05-24T06:15:40.546Z,79.48
2023-05-24T06:16:32.553Z,79.02
2023-05-24T06:17:24.553Z,79.10
2023-05-24T06:18:16.036Z,79.55
2023-05-24T06:19:08.021Z,79.69
2023-05-24T06:20:07.324Z,79.52
2023-05-24T06:21:01.500Z,78.78
2023-05-24T06:21:53.460Z,78.68
2023-05-24T06:22:45.650Z,78.48
2023-05-24T06:23:37.832Z,78.32
2023-05-24T06:24:29.890Z,78.25
2023-05-24T06:25:24.158Z,78.24
2023-05-24T06:26:15.679Z,78.46
2023-05-24T06:27:07.233Z,78.19
2023-05-24T06:27:58.719Z,77.99
2023-05-24T06:28:51.438Z,77.76
2023-05-24T06:29:43.001Z,77.27
2023-05-24T06:30:34.582Z,77.30
2023-05-24T06:31:26.338Z,77.94
2023-05-24T06:32:17.815Z,77.56
2023-05-24T06:33:12.014Z,77.43
2023-05-24T06:34:04.826Z,76.90
2023-05-24T06:34:56.500Z,76.36
2023-05-24T06:35:48.643Z,76.42
2023-05-24T06:36:43.246Z,76.56
2023-05-24T06:37:35.158Z,76.60
2023-05-24T06:38:28.981Z,76.55
2023-05-24T06:39:25.331Z,76.12
2023-05-24T06:40:16.812Z,75.85
2023-05-24T06:41:08.775Z,75.02
2023-05-24T06:42:00.271Z,75.02
2023-05-24T06:42:52.993Z,75.10
2023-05-24T06:43:46.079Z,75.27
2023-05-24T06:44:37.578Z,74.44
2023-05-24T06:45:29.248Z,74.16
2023-05-24T06:46:20.804Z,74.05
2023-05-24T06:47:12.592Z,73.70
2023-05-24T06:48:04.631Z,72.87
2023-05-24T06:48:56.462Z,72.74
2023-05-24T06:49:53.636Z,72.18
2023-05-24T06:50:45.705Z,72.02
2023-05-24T06:51:38.130Z,71.46
2023-05-24T06:52:29.682Z,70.95
2023-05-24T06:53:21.598Z,71.08
2023-05-24T06:54:15.261Z,70.87
2023-05-24T06:55:06.939Z,69.37
2023-05-24T06:55:59.402Z,69.21
2023-05-24T06:56:51.640Z,67.96
2023-05-24T06:57:43.329Z,68.30
2023-05-24T06:58:36.510Z,68.08
2023-05-24T06:59:28.339Z,67.51
2023-05-24T07:00:20.377Z,67.59
2023-05-24T07:01:11.970Z,67.77
2023-05-24T07:02:04.537Z,68.49
2023-05-24T07:02:56.788Z,68.07
2023-05-24T07:03:48.494Z,68.49
2023-05-24T07:04:43.347Z,68.29
2023-05-24T07:05:35.517Z,68.15
2023-05-24T07:06:27.433Z,67.75
2023-05-24T07:07:22.589Z,67.05
2023-05-24T07:08:14.113Z,67.06
2023-05-24T07:09:10.288Z,67.19
2023-05-24T07:10:01.874Z,67.50
2023-05-24T07:10:54.814Z,66.41
2023-05-24T07:11:46.364Z,67.03
2023-05-24T07:12:38.275Z,67.63
2023-05-24T07:13:29.766Z,68.56
2023-05-24T07:14:23.083Z,68.46
2023-05-24T07:15:14.909Z,67.79
2023-05-24T07:16:06.711Z,66.58
2023-05-24T07:17:00.981Z,66.30
2023-05-24T07:17:53.367Z,66.36
2023-05-24T07:18:45.218Z,66.24
2023-05-24T07:19:37.228Z,66.29
2023-05-24T07:20:29.073Z,66.76
2023-05-24T07:21:21.357Z,66.07
2023-05-24T07:22:15.211Z,66.88
2023-05-24T07:23:07.309Z,66.74
2023-05-24T07:23:58.863Z,66.89
2023-05-24T07:24:53.136Z,67.47
2023-05-24T07:25:44.627Z,67.12
2023-05-24T07:26:36.860Z,66.85
2023-05-24T07:27:28.302Z,66.97
2023-05-24T07:28:20.311Z,66.40
2023-05-24T07:29:11.920Z,66.63
2023-05-24T07:30:07.788Z,66.84
2023-05-24T07:31:04.647Z,66.98
2023-05-24T07:31:56.693Z,66.85
2023-05-24T07:32:48.411Z,66.62
2023-05-24T07:33:40.878Z,66.40
2023-05-24T07:34:32.321Z,66.93
2023-05-24T07:35:23.948Z,66.23
2023-05-24T07:36:16.451Z,67.05
2023-05-24T07:37:07.972Z,67.19
2023-05-24T07:38:00.921Z,67.11
2023-05-24T07:38:53.376Z,65.51
2023-05-24T07:39:47.086Z,65.29
2023-05-24T07:40:39.664Z,66.19
2023-05-24T07:41:33.206Z,65.49
2023-05-24T07:42:24.899Z,65.58
2023-05-24T07:43:16.450Z,65.68
2023-05-24T07:44:08.325Z,65.69
2023-05-24T07:44:59.765Z,66.04
2023-05-24T07:45:56.399Z,65.87
2023-05-24T07:46:48.027Z,64.89
2023-05-24T07:47:39.691Z,65.12
2023-05-24T07:48:31.664Z,65.14
2023-05-24T07:49:23.707Z,64.61
2023-05-24T07:50:15.164Z,64.68
2023-05-24T07:51:06.889Z,64.94
2023-05-24T07:51:59.579Z,63.79
2023-05-24T07:52:51.611Z,62.61
2023-05-24T07:53:43.094Z,62.23
2023-05-24T07:54:34.652Z,62.16
2023-05-24T07:55:27.201Z,61.77
2023-05-24T07:56:21.566Z,61.37
2023-05-24T07:57:13.030Z,61.03
2023-05-24T07:58:04.491Z,60.22
2023-05-24T07:59:03.306Z,60.77
2023-05-24T07:59:56.287Z,59.72
2023-05-24T08:00:47.990Z,59.92
2023-05-24T08:01:39.570Z,59.11
2023-05-24T08:02:31.284Z,59.76
2023-05-24T08:03:25.109Z,59.77
2023-05-24T08:04:19.008Z,58.35
2023-05-24T08:05:13.719Z,59.86
2023-05-24T08:06:06.295Z,59.10
2023-05-24T08:06:58.330Z,59.61
2023-05-24T08:07:51.427Z,60.32
2023-05-24T08:08:42.893Z,61.16
2023-05-24T08:09:37.554Z,61.75
2023-05-24T08:10:32.289Z,62.30
2023-05-24T08:11:25.223Z,62.06
2023-05-24T08:12:17.322Z,62.42
2023-05-24T08:13:09.079Z,63.04
2023-05-24T08:14:00.635Z,62.90
2023-05-24T08:14:52.137Z,64.00
2023-05-24T08:15:43.844Z,64.31
2023-05-24T08:16:35.915Z,64.52
2023-05-24T08:17:27.690Z,65.00
2023-05-24T08:18:21.560Z,63.86
2023-05-24T08:19:13.064Z,63.64
2023-05-24T08:20:09.598Z,64.04
2023-05-24T08:21:01.439Z,64.22
2023-05-24T08:21:54.686Z,63.71
2023-05-24T08:22:48.563Z,62.76
2023-05-24T08:23:43.113Z,63.61
2023-05-24T08:24:34.695Z,63.10
2023-05-24T08:25:28.603Z,62.58
2023-05-24T08:26:21.061Z,62.27
2023-05-24T08:27:12.716Z,62.36
2023-05-24T08:28:04.530Z,62.16
2023-05-24T08:28:59.374Z,61.18
2023-05-24T08:29:50.911Z,61.22
2023-05-24T08:30:45.143Z,60.90
2023-05-24T08:31:37.446Z,61.01
2023-05-24T08:32:29.412Z,60.10
2023-05-24T08:33:22.850Z,59.71
2023-05-24T08:34:15.561Z,60.05
2023-05-24T08:35:19.131Z,59.44
2023-05-24T08:36:11.532Z,59.43
2023-05-24T08:37:05.492Z,59.37
2023-05-24T08:37:57.026Z,59.20
2023-05-24T08:38:48.644Z,59.21
2023-05-24T08:39:40.640Z,58.86
2023-05-24T08:40:32.418Z,59.55
2023-05-24T08:41:24.138Z,59.03
2023-05-24T08:42:19.118Z,59.18
2023-05-24T08:43:12.190Z,58.78
2023-05-24T08:44:07.475Z,58.59
2023-05-24T08:45:08.572Z,58.02
2023-05-24T08:46:02.218Z,59.56
2023-05-24T08:46:54.772Z,58.78
2023-05-24T08:47:48.243Z,62.77
2023-05-24T08:48:47.197Z,57.90
2023-05-24T08:49:41.086Z,55.32
2023-05-24T08:50:36.002Z,55.29
2023-05-24T08:51:30.682Z,55.49
2023-05-24T08:52:23.391Z,55.80
2023-05-24T08:53:15.558Z,56.27
2023-05-24T08:54:10.805Z,55.85
2023-05-24T08:55:06.694Z,55.83
2023-05-24T08:55:58.538Z,55.02
2023-05-24T08:56:51.250Z,54.96
2023-05-24T08:57:45.774Z,54.90
2023-05-24T08:58:38.845Z,54.35
2023-05-24T08:59:30.385Z,54.42
2023-05-24T09:00:22.165Z,55.51
2023-05-24T09:01:16.469Z,55.18
2023-05-24T09:02:13.724Z,55.94
2023-05-24T09:03:07.190Z,55.26
2023-05-24T09:04:00.708Z,53.90
2023-05-24T09:04:53.271Z,54.59
2023-05-24T09:05:45.650Z,55.24
2023-05-24T09:06:38.734Z,55.29
2023-05-24T09:07:33.061Z,54.91
2023-05-24T09:08:26.190Z,56.38
2023-05-24T09:09:21.391Z,54.08
2023-05-24T09:10:13.217Z,54.15
2023-05-24T09:11:07.880Z,54.80
2023-05-24T09:12:04.281Z,53.80
2023-05-24T09:13:05.118Z,54.57
2023-05-24T09:13:57.521Z,54.11
2023-05-24T09:14:50.028Z,54.83
2023-05-24T09:15:41.954Z,54.48
2023-05-24T09:16:34.461Z,54.19
2023-05-24T09:17:26.477Z,54.61
2023-05-24T09:18:18.088Z,53.37
2023-05-24T09:19:09.911Z,53.88
2023-05-24T09:20:02.113Z,53.89
2023-05-24T09:20:53.861Z,55.68
2023-05-24T09:21:45.554Z,53.80
2023-05-24T09:22:41.109Z,53.74
2023-05-24T09:23:34.481Z,54.71
2023-05-24T09:24:26.721Z,52.97
2023-05-24T09:25:20.421Z,51.13
2023-05-24T09:26:12.634Z,52.15
2023-05-24T09:27:07.400Z,51.44
2023-05-24T09:28:08.436Z,50.85
2023-05-24T09:29:02.068Z,51.24
2023-05-24T09:29:55.731Z,51.48
2023-05-24T09:30:59.110Z,52.69
2023-05-24T09:31:56.053Z,52.50
2023-05-24T09:33:01.621Z,52.72
2023-05-24T09:33:53.387Z,52.98
2023-05-24T09:34:48.943Z,53.05
2023-05-24T09:35:44.920Z,53.34
2023-05-24T09:36:41.120Z,53.02
2023-05-24T09:37:36.029Z,51.89
2023-05-24T09:38:28.212Z,52.42
2023-05-24T09:39:20.896Z,53.30
2023-05-24T09:40:20.743Z,54.15
2023-05-24T09:41:12.366Z,53.83
2023-05-24T09:42:06.367Z,53.31
2023-05-24T09:43:09.540Z,53.42
2023-05-24T09:44:01.926Z,54.21
2023-05-24T09:45:01.047Z,54.22
2023-05-24T09:45:54.304Z,54.47
2023-05-24T09:46:46.224Z,54.11
2023-05-24T09:47:43.209Z,53.85
2023-05-24T09:48:34.762Z,53.97
2023-05-24T09:49:26.593Z,54.00
2023-05-24T09:50:18.591Z,54.20
2023-05-24T09:51:11.598Z,53.81
2023-05-24T09:52:03.365Z,53.66
2023-05-24T09:52:56.402Z,52.93
2023-05-24T09:53:49.524Z,52.81
2023-05-24T09:54:43.149Z,53.82
2023-05-24T09:55:38.338Z,52.88
2023-05-24T09:56:30.902Z,52.92
2023-05-24T09:57:23.087Z,51.07
2023-05-24T09:58:15.682Z,51.38
2023-05-24T09:59:08.395Z,50.65
2023-05-24T10:00:08.378Z,50.56
2023-05-24T10:01:06.681Z,50.18
2023-05-24T10:02:12.342Z,50.39
2023-05-24T10:03:08.706Z,51.24
2023-05-24T10:04:04.240Z,50.79
2023-05-24T10:05:00.957Z,48.51
2023-05-24T10:05:54.420Z,48.97
2023-05-24T10:06:47.996Z,48.35
2023-05-24T10:07:43.689Z,49.36
2023-05-24T10:08:36.415Z,49.35
2023-05-24T10:09:34.081Z,49.75
2023-05-24T10:10:30.445Z,49.83
2023-05-24T10:11:22.339Z,49.87
2023-05-24T10:12:14.113Z,49.98
2023-05-24T10:13:05.817Z,50.24
2023-05-24T10:13:57.932Z,51.00
2023-05-24T10:14:52.737Z,49.89
2023-05-24T10:15:45.071Z,49.65
2023-05-24T10:16:39.453Z,49.90
2023-05-24T10:17:31.069Z,50.86
2023-05-24T10:18:26.706Z,51.11
2023-05-24T10:19:18.782Z,50.94
2023-05-24T10:20:12.625Z,49.73
2023-05-24T10:21:08.682Z,48.77
2023-05-24T10:22:06.476Z,48.94
2023-05-24T10:23:03.263Z,50.10
2023-05-24T10:23:59.643Z,49.20
2023-05-24T10:24:58.950Z,48.90
2023-05-24T10:26:11.797Z,48.94
2023-05-24T10:27:13.035Z,49.77
2023-05-24T10:28:12.450Z,49.48
2023-05-24T10:29:16.343Z,48.51
2023-05-24T10:30:22.765Z,48.92
2023-05-24T10:31:29.169Z,46.75
2023-05-24T10:32:26.061Z,47.93
2023-05-24T10:33:22.522Z,48.75
2023-05-24T10:34:14.316Z,49.60
2023-05-24T10:35:08.131Z,48.64
2023-05-24T10:36:00.405Z,49.92
2023-05-24T10:36:52.170Z,47.67
2023-05-24T10:37:47.370Z,48.05
2023-05-24T10:38:40.418Z,47.40
2023-05-24T10:39:39.000Z,46.64
2023-05-24T10:40:32.131Z,47.15
2023-05-24T10:41:27.890Z,48.22
2023-05-24T10:42:23.094Z,49.35
2023-05-24T10:43:17.082Z,49.90
2023-05-24T10:44:17.319Z,48.52
2023-05-24T10:45:27.663Z,48.42
2023-05-24T10:46:22.857Z,49.36
2023-05-24T10:47:17.157Z,49.81
2023-05-24T10:48:15.395Z,48.99
2023-05-24T10:49:07.570Z,48.83
2023-05-24T10:50:05.015Z,48.98
2023-05-24T10:50:57.330Z,50.83
2023-05-24T10:51:49.190Z,49.88
2023-05-24T10:52:41.757Z,49.83
2023-05-24T10:53:40.849Z,49.60
2023-05-24T10:54:32.506Z,49.52
2023-05-24T10:55:25.706Z,49.79
2023-05-24T10:56:21.005Z,49.30
2023-05-24T10:57:12.944Z,49.16
2023-05-24T10:58:06.266Z,49.00
2023-05-24T10:58:59.190Z,49.80
2023-05-24T10:59:53.535Z,49.94
2023-05-24T11:00:45.879Z,48.77
2023-05-24T11:01:37.761Z,47.69
2023-05-24T11:02:36.916Z,50.23
2023-05-24T11:03:35.443Z,49.92
2023-05-24T11:04:31.780Z,50.91
2023-05-24T11:05:24.012Z,49.71
2023-05-24T11:06:15.976Z,49.22
2023-05-24T11:07:11.565Z,48.26
2023-05-24T11:08:04.188Z,48.18
2023-05-24T11:09:00.234Z,48.91
2023-05-24T11:09:58.136Z,49.39
2023-05-24T11:10:50.878Z,49.39
2023-05-24T11:11:47.801Z,49.33
2023-05-24T11:12:42.011Z,48.06
2023-05-24T11:13:33.811Z,48.99
2023-05-24T11:14:29.173Z,48.04
2023-05-24T11:15:25.012Z,48.48
2023-05-24T11:16:38.771Z,49.02
2023-05-24T11:17:31.519Z,48.53
2023-05-24T11:18:23.920Z,48.72
2023-05-24T11:19:19.982Z,48.31
2023-05-24T11:20:14.325Z,48.86
2023-05-24T11:21:06.609Z,48.11
2023-05-24T11:21:59.753Z,48.77
2023-05-24T11:22:54.744Z,48.71
2023-05-24T11:23:48.551Z,49.40
2023-05-24T11:24:41.495Z,48.91
2023-05-24T11:25:35.868Z,48.65
2023-05-24T11:26:28.179Z,48.78
2023-05-24T11:27:20.075Z,48.06
2023-05-24T11:28:13.755Z,48.18
2023-05-24T11:29:06.177Z,47.91
2023-05-24T11:29:58.151Z,48.35
2023-05-24T11:30:51.055Z,48.81
2023-05-24T11:32:04.561Z,49.06
2023-05-24T11:32:57.008Z,49.23
2023-05-24T11:33:48.751Z,50.07
2023-05-24T11:34:40.320Z,49.69
2023-05-24T11:35:32.084Z,50.13
2023-05-24T11:36:24.043Z,49.70